Time;durP1;ratioP1;P1;durP2;ratioP2;P2;SDS_P1;SDS_P2;PMS_P1;PMS_P2;Temp;Humidity;BMP_temperature;BMP_pressure;BME280_temperature;BME280_humidity;BME280_pressure;Samples;Min_cycle;Max_cycle;Signal;HPM_P1;HPM_P2
2022/10/26 00:01:37;;;;;;;341.03;153.20;;;;;;;;;;5020738;28;20265;-55
2022/10/26 00:04:03;;;;;;;410.50;187.23;;;;;;;;;;5016320;28;20303;-55
2022/10/26 00:06:29;;;;;;;348.70;158.50;;;;;;;;;;5021810;28;20203;-55
2022/10/26 00:08:56;;;;;;;405.77;183.13;;;;;;;;;;5019894;28;20775;-55
2022/10/26 00:11:22;;;;;;;342.93;156.50;;;;;;;;;;5021705;28;20208;-55
2022/10/26 00:13:48;;;;;;;444.53;215.97;;;;;;;;;;5024844;28;20224;-55
2022/10/26 00:16:25;;;;;;;402.30;180.83;;;;;;;;;;5013923;28;20378;-55
2022/10/26 00:18:51;;;;;;;421.47;190.93;;;;;;;;;;5007587;28;20231;-55
2022/10/26 00:21:17;;;;;;;439.30;202.73;;;;;;;;;;5009288;28;20248;-55
2022/10/26 00:23:43;;;;;;;362.30;163.73;;;;;;;;;;5014328;28;20355;-55
2022/10/26 00:26:09;;;;;;;364.17;166.90;;;;;;;;;;5007544;28;20317;-55
2022/10/26 00:28:35;;;;;;;371.33;173.23;;;;;;;;;;5018935;28;20695;-55
2022/10/26 00:31:03;;;;;;;407.80;185.93;;;;;;;;;;5020118;28;20223;-55
2022/10/26 00:33:29;;;;;;;386.33;175.17;;;;;;;;;;5022885;28;20207;-55
2022/10/26 00:35:55;;;;;;;426.40;200.00;;;;;;;;;;5020079;28;20223;-55
2022/10/26 00:38:21;;;;;;;412.43;190.67;;;;;;;;;;5027611;28;20216;-55
2022/10/26 00:40:47;;;;;;;365.00;164.43;;;;;;;;;;5025808;28;20209;-55
2022/10/26 00:43:19;;;;;;;367.23;165.00;;;;;;;;;;5018731;28;20588;-55
2022/10/26 00:45:45;;;;;;;360.87;166.00;;;;;;;;;;5008427;28;20227;-55
2022/10/26 00:48:20;;;;;;;394.57;180.17;;;;;;;;;;5010862;28;20241;-55
2022/10/26 00:50:47;;;;;;;372.77;169.70;;;;;;;;;;5027124;28;20573;-55
2022/10/26 00:53:13;;;;;;;438.13;199.93;;;;;;;;;;5027804;28;20247;-55
2022/10/26 00:55:41;;;;;;;365.23;166.30;;;;;;;;;;5025487;28;20216;-55
2022/10/26 00:58:08;;;;;;;361.87;164.60;;;;;;;;;;5028723;28;20235;-55
2022/10/26 01:00:34;;;;;;;350.63;161.07;;;;;;;;;;5029134;28;20208;-55
2022/10/26 01:03:03;;;;;;;354.10;156.90;;;;;;;;;;5023353;28;20173;-55
2022/10/26 01:05:29;;;;;;;402.00;183.23;;;;;;;;;;5014662;28;20719;-55
2022/10/26 01:07:55;;;;;;;315.20;143.07;;;;;;;;;;5015132;28;20669;-55
2022/10/26 01:10:21;;;;;;;427.63;195.93;;;;;;;;;;5024707;28;20266;-55
2022/10/26 01:12:47;;;;;;;340.77;151.90;;;;;;;;;;5022908;28;20589;-55
2022/10/26 01:15:13;;;;;;;427.63;196.00;;;;;;;;;;5025609;28;20280;-55
2022/10/26 01:17:48;;;;;;;417.23;189.03;;;;;;;;;;5021532;28;20220;-55
2022/10/26 01:20:14;;;;;;;429.20;196.00;;;;;;;;;;5024505;28;20211;-55
2022/10/26 01:22:51;;;;;;;366.30;166.50;;;;;;;;;;5022848;28;20338;-55
2022/10/26 01:25:17;;;;;;;365.63;165.50;;;;;;;;;;5023965;28;20542;-55
2022/10/26 01:27:45;;;;;;;404.97;189.00;;;;;;;;;;5025971;28;20676;-55
2022/10/26 01:30:15;;;;;;;390.67;177.00;;;;;;;;;;5026702;28;20171;-55
2022/10/26 01:32:47;;;;;;;397.20;181.73;;;;;;;;;;5023946;28;20220;-55
2022/10/26 01:35:20;;;;;;;391.40;179.87;;;;;;;;;;5036206;28;20223;-55
2022/10/26 01:37:48;;;;;;;318.67;146.93;;;;;;;;;;5028637;28;20234;-55
2022/10/26 01:40:30;;;;;;;341.93;154.27;;;;;;;;;;5020038;28;20684;-55
2022/10/26 01:42:58;;;;;;;381.07;173.63;;;;;;;;;;5021105;28;20339;-55
2022/10/26 01:45:25;;;;;;;308.43;140.70;;;;;;;;;;5023354;28;20672;-55
2022/10/26 01:47:52;;;;;;;438.10;205.50;;;;;;;;;;5021930;28;20199;-55
2022/10/26 01:50:19;;;;;;;359.20;163.77;;;;;;;;;;5022795;28;20572;-55
2022/10/26 01:52:48;;;;;;;409.67;189.83;;;;;;;;;;5024406;28;20211;-55
2022/10/26 01:55:33;;;;;;;446.83;212.73;;;;;;;;;;5027547;28;20234;-55
2022/10/26 01:58:02;;;;;;;395.33;178.97;;;;;;;;;;5027270;28;20277;-55
2022/10/26 02:00:30;;;;;;;300.03;137.43;;;;;;;;;;5028812;28;20552;-55
2022/10/26 02:03:01;;;;;;;306.60;140.30;;;;;;;;;;5029136;28;20184;-55
2022/10/26 02:05:45;;;;;;;457.90;219.13;;;;;;;;;;5027137;28;20264;-55
2022/10/26 02:08:14;;;;;;;428.20;197.90;;;;;;;;;;5029215;28;20309;-55
2022/10/26 02:10:40;;;;;;;375.20;173.00;;;;;;;;;;5023757;28;20289;-55
2022/10/26 02:13:28;;;;;;;333.90;150.97;;;;;;;;;;5022517;28;20274;-55
2022/10/26 02:15:54;;;;;;;401.17;183.73;;;;;;;;;;5021650;28;20221;-55
2022/10/26 02:18:38;;;;;;;391.40;175.27;;;;;;;;;;5007731;28;20368;-55
2022/10/26 02:21:10;;;;;;;438.90;201.83;;;;;;;;;;5026030;28;20230;-55
2022/10/26 02:23:38;;;;;;;381.63;172.37;;;;;;;;;;5026938;28;20243;-55
2022/10/26 02:26:06;;;;;;;397.50;182.27;;;;;;;;;;5024754;28;20223;-54
2022/10/26 02:28:40;;;;;;;422.57;199.07;;;;;;;;;;5016406;28;20213;-55
2022/10/26 02:31:07;;;;;;;434.83;202.43;;;;;;;;;;5007848;28;20224;-55
2022/10/26 02:33:36;;;;;;;307.67;138.83;;;;;;;;;;5011698;28;20280;-55
2022/10/26 02:36:03;;;;;;;285.53;129.53;;;;;;;;;;5013043;28;20224;-55
2022/10/26 02:38:30;;;;;;;332.97;151.37;;;;;;;;;;5007085;28;20243;-55
2022/10/26 02:40:56;;;;;;;379.93;175.27;;;;;;;;;;5006728;28;20287;-54
2022/10/26 02:43:23;;;;;;;402.60;180.97;;;;;;;;;;4999045;28;20208;-55
2022/10/26 02:45:53;;;;;;;395.27;178.67;;;;;;;;;;5005773;28;20229;-55
2022/10/26 02:48:19;;;;;;;385.60;182.03;;;;;;;;;;5000498;28;20568;-55
2022/10/26 02:50:57;;;;;;;307.43;138.43;;;;;;;;;;5007214;28;20770;-55
2022/10/26 02:53:41;;;;;;;401.63;182.00;;;;;;;;;;5008350;28;20224;-55
2022/10/26 02:56:10;;;;;;;330.57;147.47;;;;;;;;;;5021306;28;20684;-55
2022/10/26 02:58:39;;;;;;;422.13;189.13;;;;;;;;;;5022977;28;20668;-55
2022/10/26 03:01:06;;;;;;;350.60;158.53;;;;;;;;;;5019154;28;20205;-55
2022/10/26 03:03:32;;;;;;;409.53;192.73;;;;;;;;;;5003017;28;20643;-55
2022/10/26 03:05:58;;;;;;;378.43;177.70;;;;;;;;;;5026270;28;20382;-55
2022/10/26 03:08:24;;;;;;;452.60;210.80;;;;;;;;;;5020449;28;20307;-55
2022/10/26 03:10:50;;;;;;;365.37;164.53;;;;;;;;;;5024118;28;20231;-55
2022/10/26 03:13:16;;;;;;;383.90;178.50;;;;;;;;;;5026048;28;20228;-54
2022/10/26 03:15:42;;;;;;;303.40;140.80;;;;;;;;;;5030425;28;20286;-55
2022/10/26 03:18:08;;;;;;;297.37;134.00;;;;;;;;;;5025989;28;20207;-55
2022/10/26 03:20:34;;;;;;;451.30;204.90;;;;;;;;;;5022780;28;20212;-55
2022/10/26 03:23:00;;;;;;;338.23;153.73;;;;;;;;;;5024010;28;20733;-55
2022/10/26 03:25:26;;;;;;;422.73;197.57;;;;;;;;;;5021421;28;20223;-55
2022/10/26 03:28:01;;;;;;;336.17;154.73;;;;;;;;;;5021481;28;20605;-55
2022/10/26 03:30:27;;;;;;;351.57;160.37;;;;;;;;;;5007083;28;20193;-55
2022/10/26 03:32:53;;;;;;;371.80;171.90;;;;;;;;;;5025667;28;20191;-55
2022/10/26 03:35:19;;;;;;;434.13;199.37;;;;;;;;;;5025480;28;20224;-55
2022/10/26 03:37:45;;;;;;;370.17;169.97;;;;;;;;;;5019174;28;20309;-55
2022/10/26 03:40:11;;;;;;;375.30;167.37;;;;;;;;;;5031673;28;20584;-55
2022/10/26 03:42:38;;;;;;;443.00;205.87;;;;;;;;;;5027261;28;20184;-55
2022/10/26 03:45:04;;;;;;;366.73;162.97;;;;;;;;;;5022562;28;20267;-55
2022/10/26 03:47:30;;;;;;;414.97;191.70;;;;;;;;;;5026916;28;20208;-55
2022/10/26 03:49:56;;;;;;;360.43;160.97;;;;;;;;;;5019462;28;20223;-55
2022/10/26 03:52:23;;;;;;;342.83;151.47;;;;;;;;;;5024408;28;20208;-55
2022/10/26 03:54:49;;;;;;;424.60;185.87;;;;;;;;;;5027783;28;20645;-55
2022/10/26 03:57:15;;;;;;;364.30;162.50;;;;;;;;;;5028842;28;20209;-55
2022/10/26 03:59:41;;;;;;;428.80;190.10;;;;;;;;;;5023178;28;20710;-55
2022/10/26 04:02:07;;;;;;;350.43;154.10;;;;;;;;;;5030582;28;20216;-55
2022/10/26 04:04:33;;;;;;;448.23;196.97;;;;;;;;;;5022287;28;20212;-55
2022/10/26 04:06:59;;;;;;;417.67;186.30;;;;;;;;;;5037325;28;20258;-54
2022/10/26 04:09:25;;;;;;;421.87;188.00;;;;;;;;;;5024776;28;20185;-55
2022/10/26 04:11:51;;;;;;;312.53;140.87;;;;;;;;;;5026491;28;20758;-55
2022/10/26 04:14:17;;;;;;;316.10;141.40;;;;;;;;;;5019838;28;20767;-55
2022/10/26 04:16:42;;;;;;;433.00;193.20;;;;;;;;;;5027540;28;20227;-55
2022/10/26 04:19:08;;;;;;;341.57;154.07;;;;;;;;;;5022175;28;20213;-55
2022/10/26 04:21:34;;;;;;;428.60;197.73;;;;;;;;;;5023823;28;20264;-55
2022/10/26 04:24:01;;;;;;;373.17;165.03;;;;;;;;;;5027433;28;20188;-55
2022/10/26 04:26:28;;;;;;;386.73;167.80;;;;;;;;;;5023582;28;20224;-54
2022/10/26 04:28:54;;;;;;;361.93;159.53;;;;;;;;;;5030490;28;20227;-54
2022/10/26 04:31:20;;;;;;;411.50;184.60;;;;;;;;;;5018555;28;20216;-54
2022/10/26 04:33:46;;;;;;;369.80;163.03;;;;;;;;;;5018165;28;20255;-54
2022/10/26 04:36:12;;;;;;;337.03;149.73;;;;;;;;;;5032797;28;20242;-54
2022/10/26 04:38:38;;;;;;;436.20;195.77;;;;;;;;;;5026001;28;20217;-54
2022/10/26 04:41:04;;;;;;;356.57;161.47;;;;;;;;;;5025008;28;20231;-55
2022/10/26 04:43:29;;;;;;;378.10;172.20;;;;;;;;;;5019220;28;20209;-55
2022/10/26 04:45:56;;;;;;;312.97;143.17;;;;;;;;;;5024318;28;20212;-55
2022/10/26 04:48:22;;;;;;;325.60;149.77;;;;;;;;;;5024727;28;20191;-55
2022/10/26 04:50:48;;;;;;;372.80;172.30;;;;;;;;;;5025504;28;20180;-55
2022/10/26 04:53:14;;;;;;;383.43;177.20;;;;;;;;;;5034579;28;20636;-54
2022/10/26 04:55:40;;;;;;;445.90;201.43;;;;;;;;;;5023329;28;20219;-55
2022/10/26 04:58:06;;;;;;;366.87;166.10;;;;;;;;;;5025261;28;20219;-55
2022/10/26 05:00:33;;;;;;;415.73;190.97;;;;;;;;;;5026241;28;20621;-55
2022/10/26 05:03:02;;;;;;;381.63;168.20;;;;;;;;;;5022796;28;20186;-55
2022/10/26 05:05:30;;;;;;;435.83;199.63;;;;;;;;;;5023703;28;20691;-54
2022/10/26 05:07:56;;;;;;;352.00;160.30;;;;;;;;;;5007669;28;20212;-55
2022/10/26 05:10:22;;;;;;;399.17;181.20;;;;;;;;;;5006436;28;20279;-55
2022/10/26 05:12:54;;;;;;;419.67;188.53;;;;;;;;;;5004242;28;20362;-55
2022/10/26 05:15:20;;;;;;;377.23;169.53;;;;;;;;;;5005582;28;20287;-55
2022/10/26 05:17:47;;;;;;;420.10;186.53;;;;;;;;;;4988667;28;20212;-55
2022/10/26 05:20:13;;;;;;;427.43;199.70;;;;;;;;;;5019242;28;20256;-55
2022/10/26 05:22:40;;;;;;;423.63;194.03;;;;;;;;;;5000791;28;20219;-56
2022/10/26 05:25:06;;;;;;;347.37;156.03;;;;;;;;;;4996448;28;20587;-55
2022/10/26 05:27:32;;;;;;;335.23;155.03;;;;;;;;;;4997807;28;20208;-55
2022/10/26 05:29:58;;;;;;;431.23;194.10;;;;;;;;;;4953913;28;20268;-57
2022/10/26 05:32:24;;;;;;;459.60;214.63;;;;;;;;;;4964374;28;20268;-56
2022/10/26 05:34:50;;;;;;;453.13;211.90;;;;;;;;;;4978513;28;20260;-56
2022/10/26 05:37:16;;;;;;;479.50;230.37;;;;;;;;;;4973762;28;20228;-56
2022/10/26 05:39:42;;;;;;;452.50;209.20;;;;;;;;;;4973467;28;20225;-57
2022/10/26 05:42:08;;;;;;;394.63;184.50;;;;;;;;;;4975929;28;20193;-57
2022/10/26 05:44:34;;;;;;;440.27;206.83;;;;;;;;;;4977247;28;20716;-56
2022/10/26 05:47:03;;;;;;;389.50;186.30;;;;;;;;;;4978223;28;20221;-56
2022/10/26 05:49:29;;;;;;;439.77;206.10;;;;;;;;;;4994804;28;20518;-55
2022/10/26 05:51:55;;;;;;;443.27;209.80;;;;;;;;;;4991767;28;20328;-56
2022/10/26 05:54:21;;;;;;;425.67;197.50;;;;;;;;;;5015896;28;20266;-56
2022/10/26 05:56:47;;;;;;;386.13;187.43;;;;;;;;;;5006173;28;20266;-56
2022/10/26 05:59:14;;;;;;;451.60;214.57;;;;;;;;;;5015073;28;20263;-56
2022/10/26 06:01:40;;;;;;;456.13;223.47;;;;;;;;;;4994144;28;20487;-55
2022/10/26 06:04:15;;;;;;;360.37;164.37;;;;;;;;;;5012494;28;20646;-56
2022/10/26 06:06:44;;;;;;;448.13;212.10;;;;;;;;;;5006980;28;21224;-56
2022/10/26 06:09:11;;;;;;;389.77;182.20;;;;;;;;;;4987414;28;20207;-56
2022/10/26 06:11:37;;;;;;;391.67;189.07;;;;;;;;;;5001354;28;21329;-56
2022/10/26 06:14:03;;;;;;;457.67;220.07;;;;;;;;;;4994068;28;20216;-56
2022/10/26 06:16:34;;;;;;;433.30;213.57;;;;;;;;;;4995680;28;20548;-56
2022/10/26 06:19:19;;;;;;;370.97;171.90;;;;;;;;;;5008615;28;20931;-56
2022/10/26 06:21:58;;;;;;;298.97;142.43;;;;;;;;;;5017284;28;20775;-57
2022/10/26 06:24:34;;;;;;;367.57;169.90;;;;;;;;;;5022951;28;20203;-57
2022/10/26 06:27:18;;;;;;;363.17;170.53;;;;;;;;;;5001601;28;20207;-53
2022/10/26 06:29:50;;;;;;;401.90;189.83;;;;;;;;;;5021208;28;20216;-53
2022/10/26 06:32:17;;;;;;;276.67;135.30;;;;;;;;;;5020222;28;20223;-53
2022/10/26 06:34:44;;;;;;;385.27;196.60;;;;;;;;;;5023287;28;20251;-53
2022/10/26 06:37:10;;;;;;;411.03;204.17;;;;;;;;;;5016256;28;20596;-53
2022/10/26 06:39:39;;;;;;;352.43;167.83;;;;;;;;;;5023138;28;20894;-53
2022/10/26 06:42:06;;;;;;;271.90;138.67;;;;;;;;;;5020394;28;20192;-52
2022/10/26 06:44:32;;;;;;;306.23;152.53;;;;;;;;;;5024796;28;20212;-53
2022/10/26 06:47:12;;;;;;;311.40;155.50;;;;;;;;;;5018151;28;20624;-52
2022/10/26 06:49:40;;;;;;;285.63;142.23;;;;;;;;;;5019982;28;20220;-55
2022/10/26 06:52:06;;;;;;;355.37;174.60;;;;;;;;;;5021902;28;20297;-56
2022/10/26 06:54:45;;;;;;;307.87;149.27;;;;;;;;;;5023562;28;20641;-56
2022/10/26 06:57:12;;;;;;;319.57;163.23;;;;;;;;;;5012481;28;20211;-56
2022/10/26 06:59:46;;;;;;;287.10;146.37;;;;;;;;;;5010164;28;20224;-55
2022/10/26 07:02:13;;;;;;;314.63;152.87;;;;;;;;;;5014236;28;20253;-55
2022/10/26 07:04:40;;;;;;;341.03;168.23;;;;;;;;;;5021179;28;20220;-55
2022/10/26 07:07:06;;;;;;;403.40;187.07;;;;;;;;;;5016732;28;21379;-55
2022/10/26 07:09:32;;;;;;;327.93;164.87;;;;;;;;;;5014656;28;20213;-56
2022/10/26 07:11:57;;;;;;;361.27;185.77;;;;;;;;;;5016762;28;20783;-56
2022/10/26 07:14:23;;;;;;;352.13;174.60;;;;;;;;;;5015980;28;20212;-56
2022/10/26 07:16:49;;;;;;;324.37;156.87;;;;;;;;;;5017199;28;20216;-56
2022/10/26 07:19:15;;;;;;;349.90;177.10;;;;;;;;;;5009778;28;20588;-56
2022/10/26 07:21:41;;;;;;;377.93;189.40;;;;;;;;;;5007419;28;22114;-56
2022/10/26 07:24:07;;;;;;;297.17;150.97;;;;;;;;;;5007811;28;20190;-56
2022/10/26 07:26:33;;;;;;;393.17;195.30;;;;;;;;;;5008831;28;20399;-56
2022/10/26 07:28:59;;;;;;;360.73;184.30;;;;;;;;;;4998891;28;20410;-56
2022/10/26 07:31:26;;;;;;;326.07;160.60;;;;;;;;;;5001472;28;20715;-57
2022/10/26 07:33:55;;;;;;;399.47;196.40;;;;;;;;;;4996351;28;20224;-56
2022/10/26 07:36:21;;;;;;;352.73;170.53;;;;;;;;;;5010814;28;20216;-56
2022/10/26 07:38:47;;;;;;;277.10;138.83;;;;;;;;;;5010548;28;20681;-56
2022/10/26 07:41:13;;;;;;;272.40;134.70;;;;;;;;;;5008227;28;20227;-59
2022/10/26 07:43:39;;;;;;;396.77;195.90;;;;;;;;;;5010919;28;20219;-57
2022/10/26 07:46:05;;;;;;;352.70;174.50;;;;;;;;;;5014105;28;20224;-57
2022/10/26 07:48:31;;;;;;;372.90;178.90;;;;;;;;;;5009360;28;20181;-57
2022/10/26 07:50:57;;;;;;;342.10;163.70;;;;;;;;;;5016630;28;20191;-57
2022/10/26 07:53:23;;;;;;;329.43;157.17;;;;;;;;;;5017832;28;20204;-57
2022/10/26 07:55:53;;;;;;;300.60;144.40;;;;;;;;;;5018785;28;20580;-57
2022/10/26 07:58:22;;;;;;;377.27;188.27;;;;;;;;;;5003119;28;20216;-57
2022/10/26 08:00:49;;;;;;;401.03;201.40;;;;;;;;;;5007103;28;20220;-57
2022/10/26 08:03:15;;;;;;;372.43;181.30;;;;;;;;;;5004005;28;20536;-57
2022/10/26 08:05:41;;;;;;;450.93;214.80;;;;;;;;;;5008250;28;20334;-57
2022/10/26 08:08:07;;;;;;;359.13;175.30;;;;;;;;;;5017077;28;20628;-58
2022/10/26 08:10:33;;;;;;;389.07;185.77;;;;;;;;;;5016557;28;20603;-57
2022/10/26 08:12:59;;;;;;;323.10;150.37;;;;;;;;;;5015053;28;20300;-57
2022/10/26 08:15:28;;;;;;;396.90;198.53;;;;;;;;;;5009514;28;20446;-57
2022/10/26 08:17:54;;;;;;;468.10;223.10;;;;;;;;;;5011262;28;20198;-57
2022/10/26 08:20:20;;;;;;;376.47;180.07;;;;;;;;;;5003095;28;20208;-57
2022/10/26 08:22:46;;;;;;;446.67;214.70;;;;;;;;;;5009793;28;20212;-57
2022/10/26 08:25:12;;;;;;;382.10;177.40;;;;;;;;;;5010082;28;20208;-57
2022/10/26 08:27:38;;;;;;;447.70;212.20;;;;;;;;;;5008045;28;20325;-57
2022/10/26 08:30:09;;;;;;;438.63;214.87;;;;;;;;;;4999065;28;20189;-57
2022/10/26 08:32:35;;;;;;;457.90;213.25;;;;;;;;;;5008096;28;20305;-64
2022/10/26 08:35:01;;;;;;;401.30;192.67;;;;;;;;;;5026957;22;20298;-53
2022/10/26 08:37:27;;;;;;;457.90;236.77;;;;;;;;;;5028214;28;20384;-54
2022/10/26 08:39:53;;;;;;;418.13;211.47;;;;;;;;;;5018795;28;20228;-53
2022/10/26 08:42:24;;;;;;;360.03;184.67;;;;;;;;;;5024826;28;20192;-54
2022/10/26 08:44:57;;;;;;;507.53;285.73;;;;;;;;;;5018487;28;20281;-54
2022/10/26 08:47:26;;;;;;;287.80;183.97;;;;;;;;;;5021098;28;20251;-54
2022/10/26 08:49:59;;;;;;;201.90;138.17;;;;;;;;;;5025668;28;20683;-53
2022/10/26 08:52:32;;;;;;;161.37;121.60;;;;;;;;;;5031530;28;20327;-53
2022/10/26 08:54:59;;;;;;;251.47;167.87;;;;;;;;;;5024998;28;20314;-54
2022/10/26 08:57:27;;;;;;;242.37;158.63;;;;;;;;;;5031900;28;20236;-53
2022/10/26 08:59:57;;;;;;;328.47;203.17;;;;;;;;;;5024483;28;20192;-53
2022/10/26 09:02:23;;;;;;;273.73;172.33;;;;;;;;;;5009223;28;20246;-53
2022/10/26 09:04:50;;;;;;;296.07;194.53;;;;;;;;;;5018009;28;20675;-53
2022/10/26 09:07:34;;;;;;;317.97;211.50;;;;;;;;;;5005477;28;20660;-54
2022/10/26 09:10:07;;;;;;;354.00;222.03;;;;;;;;;;4995092;28;20220;-53
2022/10/26 09:12:40;;;;;;;271.37;185.37;;;;;;;;;;4977637;28;20243;-54
2022/10/26 09:15:22;;;;;;;343.27;210.73;;;;;;;;;;5000700;28;20280;-53
2022/10/26 09:18:09;;;;;;;278.60;185.00;;;;;;;;;;4999403;28;20614;-54
2022/10/26 09:20:41;;;;;;;350.13;224.80;;;;;;;;;;4995487;28;20308;-54
2022/10/26 09:23:13;;;;;;;222.00;160.27;;;;;;;;;;5000010;28;20219;-53
2022/10/26 09:25:40;;;;;;;326.63;201.77;;;;;;;;;;5001536;28;20255;-54
2022/10/26 09:28:11;;;;;;;217.50;142.53;;;;;;;;;;5014525;28;20281;-54
2022/10/26 09:30:37;;;;;;;259.37;171.73;;;;;;;;;;5021003;28;20703;-54
2022/10/26 09:33:08;;;;;;;318.23;217.73;;;;;;;;;;5018886;28;21567;-54
2022/10/26 09:35:53;;;;;;;214.37;157.83;;;;;;;;;;5023412;28;20261;-54
2022/10/26 09:38:29;;;;;;;280.23;186.40;;;;;;;;;;5017828;28;20751;-54
2022/10/26 09:40:54;;;;;;;321.87;205.83;;;;;;;;;;5028006;28;20223;-53
2022/10/26 09:43:24;;;;;;;220.67;153.23;;;;;;;;;;5014456;28;20572;-54
2022/10/26 09:45:51;;;;;;;228.67;157.47;;;;;;;;;;5002860;28;20241;-53
2022/10/26 09:48:17;;;;;;;172.30;129.70;;;;;;;;;;5017555;28;20698;-53
2022/10/26 09:50:45;;;;;;;174.35;134.60;;;;;;;;;;5003517;28;20216;-54
2022/10/26 09:53:11;;;;;;;238.10;161.17;;;;;;;;;;5001496;28;20253;-54
2022/10/26 09:55:40;;;;;;;271.30;180.57;;;;;;;;;;5010249;28;20307;-54
2022/10/26 09:58:12;;;;;;;320.67;204.73;;;;;;;;;;5003983;28;20299;-54
2022/10/26 10:00:38;;;;;;;196.07;143.53;;;;;;;;;;5004944;28;20192;-54
2022/10/26 10:03:16;;;;;;;277.80;186.30;;;;;;;;;;4993010;28;20264;-53
2022/10/26 10:05:42;;;;;;;187.13;144.77;;;;;;;;;;5018466;28;20414;-54
2022/10/26 10:08:14;;;;;;;297.10;207.53;;;;;;;;;;4999765;28;20334;-53
2022/10/26 10:10:53;;;;;;;294.67;201.13;;;;;;;;;;5020393;28;20224;-54
2022/10/26 10:13:20;;;;;;;268.43;189.70;;;;;;;;;;4997238;28;20231;-54
2022/10/26 10:16:04;;;;;;;342.03;231.03;;;;;;;;;;5000752;28;20219;-54
2022/10/26 10:18:31;;;;;;;345.17;232.63;;;;;;;;;;5002460;28;20423;-54
2022/10/26 10:20:58;;;;;;;254.17;177.77;;;;;;;;;;5013722;28;20593;-54
2022/10/26 10:23:26;;;;;;;280.53;189.67;;;;;;;;;;4994949;28;21211;-54
2022/10/26 10:25:58;;;;;;;348.30;208.70;;;;;;;;;;4992776;28;20344;-54
2022/10/26 10:28:25;;;;;;;253.80;169.40;;;;;;;;;;5005218;28;20257;-53
2022/10/26 10:30:56;;;;;;;284.17;184.40;;;;;;;;;;5002188;28;20371;-53
2022/10/26 10:33:22;;;;;;;308.73;193.40;;;;;;;;;;5006399;28;20349;-53
2022/10/26 10:35:50;;;;;;;336.90;224.97;;;;;;;;;;4992825;28;20252;-54
2022/10/26 10:38:17;;;;;;;261.35;170.93;;;;;;;;;;4998382;28;20710;-54
2022/10/26 10:40:48;;;;;;;293.45;187.27;;;;;;;;;;4995408;28;20648;-54
2022/10/26 10:43:15;;;;;;;246.68;167.10;;;;;;;;;;5012920;28;20245;-54
2022/10/26 10:45:46;;;;;;;238.52;169.00;;;;;;;;;;5007037;28;20242;-54
2022/10/26 10:48:12;;;;;;;281.37;194.83;;;;;;;;;;5012602;28;20191;-54
2022/10/26 10:50:38;;;;;;;311.73;194.17;;;;;;;;;;4994441;28;20250;-54
2022/10/26 10:53:18;;;;;;;435.33;259.80;;;;;;;;;;5007440;28;20231;-54
2022/10/26 10:55:50;;;;;;;288.57;187.13;;;;;;;;;;5006551;28;20269;-53
2022/10/26 10:58:42;;;;;;;323.87;206.50;;;;;;;;;;5015803;28;20219;-54
2022/10/26 11:01:12;;;;;;;301.80;193.73;;;;;;;;;;5002063;28;20230;-53
2022/10/26 11:03:53;;;;;;;248.07;164.97;;;;;;;;;;5027316;28;20184;-53
2022/10/26 11:06:21;;;;;;;308.77;192.77;;;;;;;;;;5020094;28;20222;-54
2022/10/26 11:08:54;;;;;;;384.53;230.50;;;;;;;;;;5004782;28;20238;-54
2022/10/26 11:11:22;;;;;;;397.73;231.33;;;;;;;;;;5012690;28;21036;-54
2022/10/26 11:13:57;;;;;;;510.17;295.07;;;;;;;;;;5004077;28;20227;-54
2022/10/26 11:16:27;;;;;;;434.07;256.57;;;;;;;;;;5005291;28;20474;-54
2022/10/26 11:19:02;;;;;;;417.20;242.33;;;;;;;;;;5005023;28;20692;-54
2022/10/26 11:21:32;;;;;;;497.77;291.90;;;;;;;;;;4993524;28;20241;-54
2022/10/26 11:24:01;;;;;;;435.77;249.57;;;;;;;;;;4993958;28;20191;-54
2022/10/26 11:26:32;;;;;;;504.77;293.90;;;;;;;;;;5014442;28;20277;-53
2022/10/26 11:29:02;;;;;;;449.77;250.63;;;;;;;;;;5008843;28;20246;-54
2022/10/26 11:31:34;;;;;;;395.33;218.90;;;;;;;;;;5018783;28;20312;-54
2022/10/26 11:34:16;;;;;;;515.87;288.10;;;;;;;;;;5014075;28;20331;-54
2022/10/26 11:36:44;;;;;;;480.20;276.23;;;;;;;;;;5004594;28;20242;-53
2022/10/26 11:39:16;;;;;;;436.10;253.60;;;;;;;;;;5016252;28;20786;-54
2022/10/26 11:41:50;;;;;;;407.93;225.17;;;;;;;;;;5019859;28;20581;-54
2022/10/26 11:44:19;;;;;;;435.93;246.67;;;;;;;;;;5005946;28;20211;-54
2022/10/26 11:47:11;;;;;;;442.27;246.43;;;;;;;;;;5026484;28;20211;-54
2022/10/26 11:49:56;;;;;;;549.83;312.37;;;;;;;;;;4983053;28;20224;-54
2022/10/26 11:52:27;;;;;;;466.70;262.87;;;;;;;;;;5008791;28;20291;-54
2022/10/26 11:54:53;;;;;;;435.70;250.97;;;;;;;;;;5015878;28;20649;-54
2022/10/26 11:57:21;;;;;;;479.97;288.33;;;;;;;;;;5006409;28;20636;-55
2022/10/26 11:59:52;;;;;;;476.43;267.57;;;;;;;;;;5007993;28;20216;-54
2022/10/26 12:02:22;;;;;;;479.30;261.87;;;;;;;;;;5020350;28;20230;-54
2022/10/26 12:04:52;;;;;;;449.20;257.80;;;;;;;;;;5009509;28;20246;-54
2022/10/26 12:07:24;;;;;;;460.90;272.93;;;;;;;;;;5019576;28;20235;-54
2022/10/26 12:09:50;;;;;;;499.90;290.60;;;;;;;;;;5020454;28;20220;-54
2022/10/26 12:12:35;;;;;;;473.07;268.07;;;;;;;;;;5015863;28;21714;-54
2022/10/26 12:15:04;;;;;;;478.60;272.63;;;;;;;;;;5021293;28;20228;-52
2022/10/26 12:17:35;;;;;;;409.70;233.20;;;;;;;;;;5017765;28;20227;-54
2022/10/26 12:20:07;;;;;;;502.27;285.40;;;;;;;;;;5002472;28;20226;-54
2022/10/26 12:22:34;;;;;;;549.03;308.17;;;;;;;;;;4998502;28;20269;-54
2022/10/26 12:25:13;;;;;;;450.07;248.23;;;;;;;;;;5007624;28;20333;-54
2022/10/26 12:27:39;;;;;;;498.73;304.80;;;;;;;;;;5013576;28;20935;-54
2022/10/26 12:30:22;;;;;;;535.27;309.47;;;;;;;;;;5004985;28;20196;-54
2022/10/26 12:32:50;;;;;;;440.40;252.13;;;;;;;;;;5021048;28;20261;-54
2022/10/26 12:35:34;;;;;;;504.65;297.08;;;;;;;;;;5034092;28;20310;-54
2022/10/26 12:38:01;;;;;;;370.47;218.53;;;;;;;;;;5018354;28;20286;-54
2022/10/26 12:40:33;;;;;;;461.85;280.80;;;;;;;;;;5013039;28;20353;-54
2022/10/26 12:43:25;;;;;;;509.63;313.33;;;;;;;;;;5008318;28;20223;-54
2022/10/26 12:46:10;;;;;;;523.63;307.17;;;;;;;;;;5003124;28;20541;-52
2022/10/26 12:48:45;;;;;;;540.53;314.20;;;;;;;;;;4995578;28;21263;-54
2022/10/26 12:51:26;;;;;;;486.70;285.07;;;;;;;;;;5026230;28;20238;-54
2022/10/26 12:54:15;;;;;;;531.27;316.37;;;;;;;;;;5006278;28;20357;-54
2022/10/26 12:57:00;;;;;;;393.47;248.83;;;;;;;;;;5005126;28;20851;-54
2022/10/26 12:59:32;;;;;;;432.73;269.60;;;;;;;;;;5032312;28;20906;-54
2022/10/26 13:02:04;;;;;;;464.40;294.53;;;;;;;;;;5011781;28;20589;-55
2022/10/26 13:04:48;;;;;;;532.38;353.10;;;;;;;;;;5017672;28;20215;-54
2022/10/26 13:07:17;;;;;;;410.98;287.15;;;;;;;;;;5017507;28;20227;-55
2022/10/26 13:09:53;;;;;;;572.03;397.92;;;;;;;;;;5002715;28;20223;-53
2022/10/26 13:12:19;;;;;;;484.67;358.08;;;;;;;;;;5013074;28;20587;-55
2022/10/26 13:14:56;;;;;;;483.25;350.85;;;;;;;;;;5022826;28;20226;-55
2022/10/26 13:17:30;;;;;;;460.80;358.40;;;;;;;;;;5013258;28;20822;-55
2022/10/26 13:20:04;;;;;;;523.60;405.40;;;;;;;;;;5008790;28;20209;-55
2022/10/26 13:22:30;;;;;;;482.60;385.40;;;;;;;;;;5011752;28;20216;-55
2022/10/26 13:25:04;;;;;;;558.58;426.98;;;;;;;;;;5015357;28;20562;-53
2022/10/26 13:27:32;;;;;;;424.27;356.00;;;;;;;;;;5013602;28;20253;-53
2022/10/26 13:30:04;;;;;;;459.60;377.40;;;;;;;;;;5030923;28;20176;-55
2022/10/26 13:32:32;;;;;;;411.40;356.85;;;;;;;;;;5036603;28;20274;-53
2022/10/26 13:35:00;;;;;;;415.45;360.52;;;;;;;;;;5031161;28;20224;-54
2022/10/26 13:37:28;;;;;;;447.80;377.55;;;;;;;;;;5026487;28;20696;-54
2022/10/26 13:39:54;;;;;;;407.85;351.00;;;;;;;;;;5027781;28;20233;-54
2022/10/26 13:42:33;;;;;;;468.52;393.77;;;;;;;;;;5027315;28;20247;-54
2022/10/26 13:45:06;;;;;;;474.10;404.75;;;;;;;;;;5027717;28;20231;-54
2022/10/26 13:47:32;;;;;;;513.15;430.33;;;;;;;;;;5022599;28;20282;-54
2022/10/26 13:50:05;;;;;;;468.58;406.52;;;;;;;;;;5020425;28;20887;-54
2022/10/26 13:52:51;;;;;;;519.95;442.83;;;;;;;;;;5017860;28;20250;-54
2022/10/26 13:55:22;;;;;;;485.03;418.87;;;;;;;;;;5012601;28;20253;-54
2022/10/26 13:58:02;;;;;;;503.13;418.02;;;;;;;;;;5002848;28;25130;-54
2022/10/26 14:00:28;;;;;;;517.63;417.30;;;;;;;;;;5025561;28;20190;-54
2022/10/26 14:02:54;;;;;;;511.55;404.58;;;;;;;;;;5028153;28;20513;-54
2022/10/26 14:05:20;;;;;;;422.20;376.40;;;;;;;;;;5019786;28;20215;-54